Time;durP1;ratioP1;P1;durP2;ratioP2;P2;SDS_P1;SDS_P2;PMS_P1;PMS_P2;Temp;Humidity;BMP_temperature;BMP_pressure;BME280_temperature;BME280_humidity;BME280_pressure;Samples;Min_cycle;Max_cycle;Signal;HPM_P1;HPM_P2
2023/03/05 00:04:13;;;;;;;10.43;6.90;;;3.10;92.90;;;1.47;70.86;99906.75;10317453;28;96566;-95
2023/03/05 00:09:16;;;;;;;12.53;7.40;;;3.10;92.90;;;1.45;71.20;99916.50;10315692;28;96410;-94
2023/03/05 00:14:19;;;;;;;14.77;8.10;;;3.10;93.10;;;1.46;70.99;99912.94;10322407;28;96623;-94
2023/03/05 00:19:22;;;;;;;13.37;8.10;;;3.10;93.30;;;1.41;71.01;99913.28;10345115;28;96615;-94
2023/03/05 00:24:25;;;;;;;15.97;8.90;;;3.10;93.40;;;1.32;71.84;99917.44;10354954;28;96346;-90
2023/03/05 00:29:29;;;;;;;13.23;8.30;;;3.00;93.70;;;1.31;72.24;99918.38;10375790;28;97508;-93
2023/03/05 00:34:35;;;;;;;16.50;8.67;;;3.00;94.00;;;1.32;72.04;99906.97;10323231;28;96454;-94
2023/03/05 00:39:38;;;;;;;17.27;8.83;;;3.00;94.20;;;1.33;71.80;99913.88;10323938;28;96406;-91
2023/03/05 00:44:41;;;;;;;14.30;8.83;;;3.00;94.20;;;1.34;71.87;99910.28;10306437;28;96405;-90
2023/03/05 00:49:44;;;;;;;15.93;9.40;;;3.00;94.20;;;1.43;72.18;99905.31;10316084;28;98273;-92
2023/03/05 00:54:47;;;;;;;15.73;8.47;;;3.10;94.30;;;1.53;71.32;99895.81;10323043;28;96528;-90
2023/03/05 00:59:50;;;;;;;15.63;8.60;;;3.20;94.20;;;1.64;71.02;99885.34;10344637;28;97503;-90
2023/03/05 01:04:53;;;;;;;16.47;8.43;;;3.20;93.90;;;1.70;70.47;99882.25;10366607;28;96585;-94
2023/03/05 01:09:56;;;;;;;13.53;8.70;;;3.30;93.70;;;1.74;70.69;99878.44;10321867;28;96342;-94
2023/03/05 01:14:59;;;;;;;14.87;8.27;;;3.30;93.60;;;1.73;70.36;99879.38;10330488;28;96664;-92
2023/03/05 01:20:04;;;;;;;15.57;8.70;;;3.30;93.60;;;1.74;70.28;99886.31;10304038;28;96392;-92
2023/03/05 01:25:08;;;;;;;14.07;8.40;;;3.30;93.60;;;1.72;70.42;99877.72;10305834;28;96690;-92
2023/03/05 01:30:14;;;;;;;14.03;8.40;;;3.40;93.70;;;1.71;70.59;99870.81;10309182;28;96567;-91
2023/03/05 01:35:21;;;;;;;15.27;8.37;;;3.40;93.70;;;1.69;70.68;99883.19;10331361;28;96406;-92
2023/03/05 01:40:27;;;;;;;13.70;8.30;;;3.30;93.80;;;1.66;70.39;99877.34;10351366;28;96408;-93
2023/03/05 01:45:34;;;;;;;16.47;8.77;;;3.30;93.70;;;1.61;70.87;99875.91;10325031;28;96727;-91
2023/03/05 01:50:37;;;;;;;12.43;7.70;;;3.30;94.00;;;1.62;71.51;99879.41;10336468;28;96420;-94
2023/03/05 01:55:40;;;;;;;17.63;8.27;;;3.20;94.30;;;1.65;71.00;99888.78;10311148;28;96978;-94
2023/03/05 02:00:47;;;;;;;18.60;8.77;;;3.30;94.50;;;1.65;71.34;99884.38;10309659;28;97158;-92
2023/03/05 02:05:50;;;;;;;13.37;8.07;;;3.30;94.50;;;1.63;71.20;99872.38;10311068;28;97123;-94
2023/03/05 02:10:56;;;;;;;17.70;7.97;;;3.30;94.40;;;1.61;71.53;99889.00;10328360;28;96554;-96
2023/03/05 02:16:02;;;;;;;15.67;8.37;;;3.30;94.60;;;1.55;71.29;99886.88;10291712;28;98238;-92
2023/03/05 02:21:07;;;;;;;14.50;8.27;;;3.20;94.60;;;1.53;72.03;99872.22;10304752;28;97874;-94
2023/03/05 02:26:10;;;;;;;18.17;8.97;;;3.20;94.80;;;1.54;71.94;99874.72;10317784;28;97371;-96
2023/03/05 02:31:20;;;;;;;19.13;8.13;;;3.20;94.90;;;1.55;71.95;99886.03;10336121;28;96533;-96
2023/03/05 02:36:24;;;;;;;15.73;8.10;;;3.20;95.00;;;1.54;71.91;99874.72;10367742;28;98389;-95
2023/03/05 02:41:27;;;;;;;11.63;6.60;;;3.20;94.80;;;1.52;71.91;99874.03;10331496;28;96540;-92
2023/03/05 02:46:30;;;;;;;12.90;7.53;;;3.30;94.90;;;1.48;72.44;99876.97;10298643;28;97235;-91
2023/03/05 02:51:33;;;;;;;14.03;7.13;;;3.20;94.80;;;1.44;72.44;99872.94;10310837;28;96655;-95
2023/03/05 02:56:38;;;;;;;13.07;7.40;;;3.20;94.80;;;1.40;72.48;99868.91;10332167;28;96450;-95
2023/03/05 03:01:41;;;;;;;11.30;6.67;;;3.10;94.70;;;1.34;72.54;99865.78;10327123;28;96470;-95
2023/03/05 03:06:44;;;;;;;14.60;7.20;;;3.10;94.90;;;1.33;72.75;99866.75;10322387;28;96436;-96
2023/03/05 03:11:48;;;;;;;17.07;7.93;;;3.10;95.10;;;1.31;72.90;99865.19;10346018;28;96258;-96
2023/03/05 03:16:52;;;;;;;12.43;7.43;;;3.00;95.20;;;1.25;73.36;99858.63;10361697;28;96450;-95
2023/03/05 03:21:55;;;;;;;16.87;7.47;;;3.00;95.30;;;1.18;73.30;99861.81;10357128;28;96342;-96
2023/03/05 03:26:58;;;;;;;13.97;6.83;;;2.90;95.30;;;1.12;73.67;99859.69;10365381;28;95854;-96
2023/03/05 03:32:04;;;;;;;14.37;7.37;;;2.80;95.30;;;0.99;73.84;99865.00;10396964;28;96436;-95
2023/03/05 03:37:07;;;;;;;14.97;7.30;;;2.80;95.30;;;0.85;74.18;99859.97;10364891;28;96396;-96
2023/03/05 03:42:10;;;;;;;15.80;7.60;;;2.70;95.50;;;0.72;74.75;99853.03;10359402;28;96603;-96
2023/03/05 03:47:14;;;;;;;10.63;6.27;;;2.50;95.60;;;0.61;74.92;99853.00;10374609;28;96420;-96
2023/03/05 03:52:16;;;;;;;10.17;6.23;;;2.40;96.30;;;0.51;75.64;99846.78;10361373;28;96277;-95
2023/03/05 03:57:20;;;;;;;14.23;7.67;;;2.30;96.50;;;0.45;75.87;99849.81;10362417;28;97194;-95
2023/03/05 04:02:23;;;;;;;13.27;7.20;;;2.20;96.70;;;0.38;76.07;99851.22;10344948;28;96411;-96
2023/03/05 04:07:26;;;;;;;17.00;7.90;;;2.20;96.70;;;0.29;76.55;99842.25;10338262;28;96597;-95
2023/03/05 04:12:30;;;;;;;13.13;6.43;;;2.10;97.10;;;0.22;76.66;99847.09;10338578;28;96309;-95
2023/03/05 04:17:33;;;;;;;14.60;7.17;;;2.00;97.80;;;0.16;77.10;99846.72;10366909;28;96675;-95
2023/03/05 04:22:37;;;;;;;20.30;7.90;;;2.00;97.70;;;0.08;77.13;99849.03;10343574;28;96234;-96
2023/03/05 04:27:40;;;;;;;13.93;7.67;;;1.90;98.00;;;0.02;77.61;99850.31;10341952;28;96358;-96
2023/03/05 04:32:43;;;;;;;13.33;7.23;;;1.80;98.70;;;-0.01;78.33;99842.69;10351237;28;96356;-95
2023/03/05 04:37:46;;;;;;;13.63;7.83;;;1.80;99.60;;;0.00;78.75;99841.75;10321664;28;98405;-94
2023/03/05 04:42:49;;;;;;;18.83;7.57;;;1.80;99.90;;;0.03;79.35;99835.47;10339396;28;96494;-93
2023/03/05 04:47:52;;;;;;;12.43;7.47;;;1.80;99.90;;;0.10;79.63;99832.31;10338124;28;98603;-94
2023/03/05 04:52:55;;;;;;;17.47;7.93;;;1.80;99.90;;;0.28;80.25;99824.09;10299013;28;97833;-94
2023/03/05 04:57:58;;;;;;;13.70;7.33;;;2.00;99.90;;;0.41;80.11;99830.91;10319660;28;96572;-94
2023/03/05 05:03:01;;;;;;;15.33;7.90;;;2.10;99.90;;;0.56;79.67;99831.59;10372856;28;97125;-87
2023/03/05 05:08:05;;;;;;;11.30;6.67;;;2.30;99.90;;;0.67;79.58;99831.63;10321836;28;96609;-89
2023/03/05 05:13:07;;;;;;;12.27;6.67;;;2.40;99.90;;;0.76;78.99;99835.31;10329314;28;96531;-89
2023/03/05 05:18:11;;;;;;;12.83;7.00;;;2.50;99.90;;;0.90;78.92;99831.66;10332790;28;97008;-89
2023/03/05 05:23:15;;;;;;;10.70;6.53;;;2.60;99.90;;;1.05;78.66;99833.13;10316395;28;96904;-88
2023/03/05 05:28:18;;;;;;;15.23;7.87;;;2.70;99.90;;;1.18;78.40;99825.19;10330397;28;97911;-90
2023/03/05 05:33:22;;;;;;;12.93;6.33;;;2.80;99.90;;;1.29;77.99;99833.88;10323392;28;98118;-89
2023/03/05 05:38:25;;;;;;;11.23;6.33;;;3.00;99.90;;;1.44;77.51;99846.75;10357185;28;97242;-89
2023/03/05 05:43:28;;;;;;;10.03;5.83;;;3.10;99.90;;;1.56;76.82;99848.41;10338703;28;98766;-89
2023/03/05 05:48:34;;;;;;;10.63;5.70;;;3.20;99.90;;;1.69;76.25;99843.91;10329794;28;96507;-89
2023/03/05 05:53:38;;;;;;;13.20;6.83;;;3.30;99.70;;;1.83;75.16;99848.88;10318571;28;97299;-87
2023/03/05 05:58:43;;;;;;;18.07;8.60;;;3.50;99.10;;;1.95;74.26;99846.25;10284077;28;96619;-87
2023/03/05 06:03:47;;;;;;;15.60;8.03;;;3.60;98.60;;;2.04;73.94;99842.91;10344493;28;97976;-90
2023/03/05 06:08:51;;;;;;;15.97;8.73;;;3.70;98.40;;;2.11;73.82;99850.16;10322805;28;98259;-89
2023/03/05 06:13:55;;;;;;;15.53;9.00;;;3.70;98.10;;;2.20;73.24;99860.88;10310608;28;96532;-88
2023/03/05 06:18:58;;;;;;;15.90;8.87;;;3.80;97.80;;;2.26;72.77;99863.00;10314026;28;96634;-88
2023/03/05 06:24:06;;;;;;;16.33;9.13;;;3.90;97.60;;;2.34;72.60;99856.19;10373519;28;98169;-90
2023/03/05 06:29:09;;;;;;;22.20;11.10;;;3.90;97.20;;;2.39;72.15;99861.88;10299864;28;98781;-89
2023/03/05 06:34:12;;;;;;;19.90;10.17;;;4.00;97.20;;;2.47;72.20;99870.94;10331425;28;98968;-91
2023/03/05 06:39:16;;;;;;;16.93;10.00;;;4.10;97.10;;;2.52;71.91;99869.59;10329883;28;98429;-89
2023/03/05 06:44:19;;;;;;;18.90;10.47;;;4.10;97.00;;;2.58;71.47;99871.72;10338691;28;96628;-90
2023/03/05 06:49:21;;;;;;;17.97;10.27;;;4.20;96.90;;;2.66;71.90;99876.34;10312506;28;97765;-89
2023/03/05 06:54:24;;;;;;;16.20;9.67;;;4.20;96.90;;;2.72;71.59;99867.97;10329366;28;96673;-90
2023/03/05 06:59:27;;;;;;;15.23;8.63;;;4.30;96.80;;;2.82;71.38;99868.03;10356822;28;96624;-90
2023/03/05 07:04:30;;;;;;;18.47;10.53;;;4.40;96.70;;;2.85;71.09;99871.25;10329510;28;98721;-87
2023/03/05 07:09:33;;;;;;;19.13;10.23;;;4.50;96.60;;;2.90;70.90;99865.63;10323750;28;98449;-88
2023/03/05 07:14:38;;;;;;;17.67;10.10;;;4.50;96.50;;;2.89;70.64;99870.06;10298416;28;97492;-87
2023/03/05 07:19:42;;;;;;;21.67;11.17;;;4.50;96.20;;;2.89;70.54;99870.06;10313723;28;98297;-88
2023/03/05 07:24:46;;;;;;;17.87;10.70;;;4.50;96.20;;;2.90;70.49;99876.97;10281422;28;96652;-81
2023/03/05 07:29:49;;;;;;;15.90;9.17;;;4.50;96.10;;;2.92;70.77;99884.69;10362547;28;99921;-81
2023/03/05 07:34:52;;;;;;;16.43;9.60;;;4.50;96.10;;;2.95;70.86;99885.28;10315791;28;96754;-82
2023/03/05 07:39:55;;;;;;;18.87;10.03;;;4.50;96.00;;;2.93;70.50;99868.81;10288556;28;96398;-85
2023/03/05 07:44:58;;;;;;;16.97;9.80;;;4.50;96.10;;;3.01;70.77;99872.63;10365539;28;97807;-88
2023/03/05 07:50:03;;;;;;;15.47;9.63;;;4.50;96.30;;;3.06;70.72;99867.78;10342363;28;96695;-88
2023/03/05 07:55:06;;;;;;;17.13;10.33;;;4.60;96.20;;;3.12;70.54;99865.53;10335752;28;96541;-90
2023/03/05 08:00:10;;;;;;;15.20;9.43;;;4.70;96.20;;;3.21;70.44;99859.47;10293615;28;96555;-87
2023/03/05 08:05:13;;;;;;;18.33;9.90;;;4.80;96.20;;;3.29;70.23;99864.06;10306118;28;96511;-91
2023/03/05 08:10:16;;;;;;;15.97;9.20;;;4.90;96.00;;;3.35;70.05;99865.34;10324389;28;97377;-90
2023/03/05 08:15:20;;;;;;;19.73;10.17;;;4.90;95.90;;;3.43;70.16;99855.88;10337221;28;97206;-89
2023/03/05 08:20:23;;;;;;;18.30;10.53;;;4.90;96.00;;;3.58;69.78;99855.53;10323672;28;96491;-88
2023/03/05 08:25:27;;;;;;;18.77;10.40;;;5.10;95.80;;;3.68;69.49;99857.22;10293566;28;96648;-84
2023/03/05 08:30:30;;;;;;;14.57;9.67;;;5.20;95.70;;;3.77;69.25;99860.84;10331641;28;96566;-82
2023/03/05 08:35:33;;;;;;;19.90;11.03;;;5.30;95.50;;;3.93;69.01;99857.75;10311991;28;96542;-91
2023/03/05 08:40:36;;;;;;;17.93;11.27;;;5.40;95.40;;;4.11;68.37;99855.28;10331748;28;96481;-86
2023/03/05 08:45:40;;;;;;;17.20;10.40;;;5.60;95.10;;;4.18;67.80;99838.84;10340943;28;97693;-86
2023/03/05 08:50:43;;;;;;;18.90;11.07;;;5.70;94.70;;;4.18;67.10;99841.47;10334272;28;96497;-87
2023/03/05 08:55:57;;;;;;;31.40;17.33;;;5.70;94.30;;;4.10;67.23;99845.75;10316829;28;96519;-88
2023/03/05 09:01:03;;;;;;;13.97;9.43;;;5.60;94.20;;;4.02;67.03;99834.13;10320604;28;96884;-88
2023/03/05 09:06:11;;;;;;;17.87;10.30;;;5.60;94.20;;;4.02;67.69;99836.75;10321280;28;97026;-88
2023/03/05 09:11:14;;;;;;;15.80;9.43;;;5.60;94.40;;;4.12;67.77;99839.38;10316972;28;96654;-92
2023/03/05 09:16:18;;;;;;;21.07;11.07;;;5.60;94.50;;;4.26;67.79;99835.53;10336829;28;99625;-80
2023/03/05 09:21:22;;;;;;;15.93;9.20;;;5.80;94.40;;;4.48;67.54;99830.00;10323041;28;98865;-85
2023/03/05 09:26:26;;;;;;;30.10;19.03;;;6.00;94.40;;;4.73;66.81;99833.88;10338890;28;98354;-83
2023/03/05 09:31:29;;;;;;;17.60;11.53;;;6.20;94.30;;;4.85;66.96;99826.66;10288093;28;98760;-85
2023/03/05 09:36:33;;;;;;;16.80;11.10;;;6.40;94.20;;;4.96;66.89;99828.31;10338643;28;96594;-85
2023/03/05 09:42:08;;;;;;;16.80;10.60;;;6.50;94.10;;;4.93;66.60;99824.19;10309756;28;96811;-84
2023/03/05 09:47:26;;;;;;;15.87;10.17;;;6.50;93.90;;;4.96;66.45;99823.06;10304457;28;97195;-86
2023/03/05 09:52:54;;;;;;;12.70;9.27;;;6.50;93.80;;;4.93;66.27;99826.81;10340491;28;96769;-87
2023/03/05 09:58:06;;;;;;;17.10;10.73;;;6.50;93.60;;;4.90;66.38;99823.63;10326277;28;96543;-86
2023/03/05 10:03:49;;;;;;;17.37;10.27;;;6.40;93.60;;;4.90;66.39;99816.56;10355509;28;96501;-86
2023/03/05 10:09:19;;;;;;;21.60;13.77;;;6.40;93.60;;;4.80;65.72;99807.84;10327372;28;98439;-88
2023/03/05 10:14:37;;;;;;;35.93;19.43;;;6.30;93.20;;;4.86;65.35;99807.28;10320795;28;98571;-86
2023/03/05 10:20:44;;;;;;;13.13;8.27;;;6.30;93.00;;;4.94;64.28;99802.16;10321458;28;96675;-86
2023/03/05 10:25:59;;;;;;;14.17;8.07;;;6.40;92.00;;;5.02;64.08;99794.34;10246317;28;96708;-92
2023/03/05 10:31:23;;;;;;;10.07;6.47;;;6.50;92.60;;;5.14;63.07;99789.75;10325015;28;96732;-91
2023/03/05 10:36:27;;;;;;;12.67;6.63;;;6.60;91.20;;;5.19;62.77;99789.34;10363452;28;96525;-89
2023/03/05 10:41:51;;;;;;;12.37;6.30;;;6.60;91.30;;;5.15;61.93;99780.88;10330836;28;98359;-89
2023/03/05 10:46:58;;;;;;;11.43;6.37;;;6.60;90.70;;;5.23;61.94;99781.00;10338656;28;97608;-87
2023/03/05 10:52:06;;;;;;;12.63;7.80;;;6.70;91.00;;;5.21;61.52;99775.03;10307924;28;96546;-89
2023/03/05 10:57:37;;;;;;;11.83;7.20;;;6.70;90.50;;;5.24;61.76;99779.19;10320942;28;96620;-88
2023/03/05 11:03:05;;;;;;;13.77;8.27;;;6.80;90.60;;;5.25;60.92;99770.31;10344783;28;96703;-89
2023/03/05 11:08:28;;;;;;;12.83;8.50;;;6.80;90.00;;;5.18;61.15;99767.44;10307926;28;96429;-90
2023/03/05 11:13:32;;;;;;;13.00;8.33;;;6.70;90.00;;;5.15;61.17;99748.44;10321159;28;96613;-90
2023/03/05 11:18:36;;;;;;;15.43;9.27;;;6.70;89.80;;;5.17;60.40;99742.06;10370829;28;97495;-88
2023/03/05 11:23:40;;;;;;;13.07;8.90;;;6.70;88.60;;;5.25;60.52;99742.16;10327340;28;97350;-90
2023/03/05 11:28:53;;;;;;;13.80;7.90;;;6.70;88.90;;;5.25;60.00;99736.06;10321521;28;96635;-89
2023/03/05 11:34:20;;;;;;;18.67;11.80;;;6.70;88.30;;;5.12;60.60;99733.75;10320511;28;96505;-89
2023/03/05 11:39:24;;;;;;;21.50;11.93;;;6.60;89.00;;;4.94;61.39;99733.69;10357981;28;97303;-90
2023/03/05 11:44:41;;;;;;;15.87;10.43;;;6.50;89.40;;;4.96;61.89;99728.25;10306258;28;96653;-89
2023/03/05 11:49:49;;;;;;;13.63;9.50;;;6.50;89.90;;;4.94;61.42;99728.41;10363943;28;97687;-90
2023/03/05 11:55:14;;;;;;;15.07;10.77;;;6.50;89.60;;;4.89;61.81;99712.22;10286207;28;96468;-91
2023/03/05 12:00:25;;;;;;;17.93;10.63;;;6.50;89.80;;;4.79;62.11;99706.13;10326884;28;96905;-91
2023/03/05 12:05:30;;;;;;;14.48;10.07;;;6.40;89.70;;;4.88;61.99;99705.28;10335593;28;96577;-90
2023/03/05 12:10:33;;;;;;;14.97;10.60;;;6.50;90.00;;;5.07;62.17;99684.16;10319327;28;96633;-89
2023/03/05 12:16:00;;;;;;;13.63;9.90;;;6.60;90.10;;;5.16;61.88;99671.94;10352295;28;96885;-90
2023/03/05 12:21:24;;;;;;;15.77;10.07;;;6.70;89.90;;;5.42;61.47;99664.16;10301682;28;96545;-91
2023/03/05 12:26:53;;;;;;;14.30;8.23;;;6.90;89.80;;;5.56;59.72;99657.53;10346795;28;97091;-89
2023/03/05 12:31:57;;;;;;;12.67;7.60;;;7.10;87.40;;;5.71;58.89;99656.06;10331365;28;96567;-86
2023/03/05 12:37:00;;;;;;;12.93;8.00;;;7.20;86.60;;;5.87;58.25;99648.28;10312596;28;97765;-87
2023/03/05 12:42:29;;;;;;;10.13;6.90;;;7.40;85.90;;;6.16;57.51;99640.16;10304619;28;97094;-87
2023/03/05 12:47:32;;;;;;;11.50;7.23;;;7.60;83.90;;;6.32;55.51;99634.19;10360137;28;96856;-86
2023/03/05 12:52:38;;;;;;;10.60;6.80;;;7.80;80.60;;;6.40;55.36;99636.03;10323140;28;96703;-87
2023/03/05 12:57:44;;;;;;;10.97;6.27;;;7.90;81.50;;;6.33;54.66;99609.44;10297213;28;96757;-86
2023/03/05 13:02:56;;;;;;;9.83;5.77;;;7.90;80.20;;;6.18;53.67;99621.56;10311642;28;98271;-86
2023/03/05 13:08:25;;;;;;;8.07;5.17;;;7.70;79.30;;;6.00;53.97;99626.00;10312452;28;96557;-87
2023/03/05 13:13:34;;;;;;;10.63;5.90;;;7.60;78.80;;;5.92;53.97;99624.13;10360269;28;96941;-85
2023/03/05 13:18:44;;;;;;;10.53;5.10;;;7.40;78.70;;;5.84;54.42;99622.22;10305614;28;96664;-85
2023/03/05 13:23:57;;;;;;;12.70;6.33;;;7.40;79.20;;;5.61;54.62;99628.94;10353383;28;96870;-85
2023/03/05 13:29:11;;;;;;;9.97;5.97;;;7.20;79.30;;;5.35;54.46;99629.66;10297183;28;97190;-83
2023/03/05 13:34:27;;;;;;;8.60;4.97;;;6.90;78.40;;;5.17;54.54;99631.44;10312500;28;97378;-85
2023/03/05 13:39:58;;;;;;;;;;;6.70;78.50;;;5.03;55.10;99632.75;10298179;28;96578;-85
2023/03/05 13:45:15;;;;;;;9.80;5.73;;;6.60;79.30;;;4.92;55.65;99632.94;10300586;28;98194;-86
2023/03/05 13:50:37;;;;;;;8.10;4.77;;;6.50;79.80;;;4.75;55.71;99626.66;10353565;28;97364;-83
2023/03/05 13:55:41;;;;;;;6.47;4.30;;;6.30;80.20;;;4.66;56.06;99622.22;10313855;28;98116;-84
2023/03/05 14:00:44;;;;;;;8.40;5.17;;;6.20;80.20;;;4.63;56.38;99626.97;10343549;28;97966;-85
2023/03/05 14:05:48;;;;;;;8.53;4.90;;;6.20;80.70;;;4.63;56.44;99626.97;10345883;28;96630;-85
2023/03/05 14:10:58;;;;;;;8.57;4.70;;;6.20;81.00;;;4.60;57.07;99606.19;10304796;28;96654;-88
2023/03/05 14:16:32;;;;;;;7.50;4.57;;;6.20;80.90;;;4.55;56.81;99610.06;10341450;28;98362;-85
2023/03/05 14:21:47;;;;;;;7.27;4.33;;;6.10;80.80;;;4.48;56.76;99621.31;10341901;28;96590;-87
2023/03/05 14:27:02;;;;;;;7.77;4.87;;;6.10;81.00;;;4.44;57.10;99620.78;10308885;28;98117;-87
2023/03/05 14:32:16;;;;;;;9.70;5.13;;;6.00;81.60;;;4.40;57.75;99606.25;10323340;28;96533;-87
2023/03/05 14:37:37;;;;;;;8.40;5.33;;;6.00;82.00;;;4.36;57.83;99604.88;10342110;28;96513;-88
2023/03/05 14:42:40;;;;;;;8.77;5.20;;;5.90;82.30;;;4.32;57.93;99576.34;10335044;28;96822;-86
2023/03/05 14:47:43;;;;;;;12.57;6.23;;;5.90;82.40;;;4.32;58.32;99566.69;10344745;28;97150;-86
2023/03/05 14:52:51;;;;;;;10.40;5.57;;;5.90;82.50;;;4.37;58.21;99572.34;10352998;28;96631;-86
2023/03/05 14:58:09;;;;;;;13.20;6.53;;;6.00;82.50;;;4.36;57.79;99569.84;10342216;28;97835;-85
2023/03/05 15:03:15;;;;;;;11.57;5.77;;;6.00;82.10;;;4.38;57.70;99571.38;10355114;28;97937;-88
2023/03/05 15:08:25;;;;;;;7.47;4.77;;;6.00;82.10;;;4.40;57.93;99558.91;10292374;28;97082;-89
2023/03/05 15:13:30;;;;;;;8.00;4.63;;;6.00;82.00;;;4.38;57.62;99544.22;10343410;28;97479;-89
2023/03/05 15:18:33;;;;;;;7.20;4.77;;;6.00;81.60;;;4.35;57.55;99570.81;10334017;28;96694;-88
2023/03/05 15:23:37;;;;;;;12.07;5.90;;;5.90;81.60;;;4.28;57.14;99581.09;10327905;28;96681;-88
2023/03/05 15:28:42;;;;;;;10.93;5.73;;;5.90;81.10;;;4.16;57.22;99576.97;10325940;28;97926;-87
2023/03/05 15:33:45;;;;;;;12.67;6.23;;;5.80;80.80;;;4.09;57.08;99566.19;10315769;28;97433;-89
2023/03/05 15:38:48;;;;;;;10.93;4.83;;;5.70;81.00;;;4.02;57.23;99560.69;10342198;27;97418;-89
2023/03/05 15:43:51;;;;;;;11.27;5.73;;;5.60;80.90;;;3.97;57.60;99565.53;10309912;28;97672;-81
2023/03/05 15:48:54;;;;;;;9.33;5.30;;;5.60;81.20;;;3.96;57.46;99590.16;10339737;28;97044;-88
2023/03/05 15:53:57;;;;;;;7.77;4.10;;;5.60;81.20;;;3.92;57.66;99586.16;10321150;28;97445;-87
2023/03/05 15:59:04;;;;;;;8.33;4.07;;;5.60;81.30;;;3.83;57.73;99592.22;10303148;28;98225;-89
2023/03/05 16:04:07;;;;;;;10.80;5.33;;;5.50;81.20;;;3.75;57.63;99579.78;10331314;28;96556;-90
2023/03/05 16:09:12;;;;;;;10.53;5.97;;;5.40;81.20;;;3.67;57.83;99586.72;10336544;28;98030;-80
2023/03/05 16:14:22;;;;;;;11.40;4.03;;;5.30;81.10;;;3.53;57.46;99595.00;10340291;28;98592;-87
2023/03/05 16:19:26;;;;;;;9.63;4.83;;;5.20;80.20;;;3.45;57.46;99591.25;10321060;28;97938;-90
2023/03/05 16:24:29;;;;;;;9.43;4.70;;;5.10;80.60;;;3.39;57.34;99598.88;10324444;28;96599;-86
2023/03/05 16:29:33;;;;;;;7.53;3.90;;;5.00;80.70;;;3.33;57.36;99594.97;10315544;28;98083;-91
2023/03/05 16:34:36;;;;;;;6.63;3.60;;;5.00;80.70;;;3.26;57.91;99593.88;10334705;28;96563;-91
2023/03/05 16:39:39;;;;;;;6.83;3.43;;;4.90;80.90;;;3.16;57.69;99585.97;10366677;28;96533;-93
2023/03/05 16:44:43;;;;;;;8.20;3.80;;;4.80;80.60;;;3.08;57.52;99587.63;10313400;28;98230;-92
2023/03/05 16:49:46;;;;;;;7.40;3.70;;;4.70;80.40;;;2.97;57.17;99582.47;10337201;28;96587;-91
2023/03/05 16:54:49;;;;;;;8.83;4.57;;;4.60;80.20;;;2.83;57.29;99592.41;10341039;28;96460;-91
2023/03/05 16:59:55;;;;;;;9.10;4.20;;;4.50;80.00;;;2.74;57.22;99593.19;10362054;28;97001;-92
2023/03/05 17:04:58;;;;;;;8.27;4.20;;;4.40;79.80;;;2.64;56.85;99589.72;10311526;28;97419;-92
2023/03/05 17:10:02;;;;;;;5.03;3.40;;;4.30;79.50;;;2.56;57.02;99600.00;10314298;28;96405;-92
2023/03/05 17:15:06;;;;;;;6.93;3.90;;;4.20;79.30;;;2.46;57.12;99599.13;10316737;28;97185;-92
2023/03/05 17:20:11;;;;;;;5.60;3.13;;;4.20;79.20;;;2.37;56.67;99609.44;10356977;28;96484;-91
2023/03/05 17:25:15;;;;;;;8.20;3.70;;;4.10;79.00;;;2.28;57.12;99599.75;10320584;28;96340;-91
2023/03/05 17:30:18;;;;;;;7.60;4.00;;;4.00;79.00;;;2.19;56.95;99605.75;10334972;28;98949;-91
2023/03/05 17:35:22;;;;;;;7.37;3.20;;;3.90;79.20;;;2.13;57.36;99606.25;10336492;28;96662;-92
2023/03/05 17:40:25;;;;;;;4.70;3.00;;;3.80;79.20;;;2.06;57.27;99605.94;10344480;28;96520;-92
2023/03/05 17:45:28;;;;;;;4.83;2.60;;;3.80;79.30;;;2.01;57.51;99615.16;10340921;28;97049;-92
2023/03/05 17:50:31;;;;;;;5.10;3.20;;;3.70;79.40;;;1.96;58.01;99612.06;10306980;28;96589;-92
2023/03/05 17:55:34;;;;;;;7.80;4.13;;;3.70;79.80;;;1.92;57.88;99613.28;10344385;28;97547;-92
2023/03/05 18:00:37;;;;;;;9.77;4.67;;;3.60;79.80;;;1.82;58.42;99623.72;10329736;28;97335;-86
2023/03/05 18:05:40;;;;;;;6.90;4.60;;;3.60;79.90;;;1.76;58.65;99617.19;10344992;28;97097;-91
2023/03/05 18:10:43;;;;;;;9.47;4.97;;;3.50;80.10;;;1.69;58.89;99616.03;10334396;28;96656;-92
2023/03/05 18:15:46;;;;;;;7.90;3.80;;;3.50;80.30;;;1.61;59.01;99618.41;10315318;28;96516;-92
2023/03/05 18:20:49;;;;;;;9.53;5.10;;;3.40;80.40;;;1.52;59.10;99612.16;10328991;28;96703;-91
2023/03/05 18:25:52;;;;;;;10.73;5.07;;;3.40;80.70;;;1.47;60.09;99618.72;10330451;28;96644;-92
2023/03/05 18:30:56;;;;;;;10.70;6.00;;;3.30;81.10;;;1.44;60.59;99611.94;10330153;28;96601;-92
2023/03/05 18:35:59;;;;;;;12.07;5.97;;;3.30;81.80;;;1.43;61.09;99610.25;10325861;28;97345;-91
2023/03/05 18:41:05;;;;;;;16.37;7.57;;;3.20;82.10;;;1.42;61.63;99607.78;10344210;28;96579;-91
2023/03/05 18:46:09;;;;;;;13.57;6.43;;;3.20;82.50;;;1.37;61.56;99609.94;10306913;28;96530;-92
2023/03/05 18:51:16;;;;;;;10.70;5.40;;;3.20;82.70;;;1.27;62.54;99612.47;10337759;28;98660;-91
2023/03/05 18:56:20;;;;;;;14.83;7.10;;;3.10;83.00;;;1.18;62.76;99608.78;10319360;28;96731;-91
2023/03/05 19:01:23;;;;;;;15.63;7.93;;;3.00;83.30;;;1.09;62.68;99606.09;10289779;28;97490;-91
2023/03/05 19:06:27;;;;;;;14.50;8.07;;;3.00;83.50;;;1.03;63.46;99616.09;10340331;28;98264;-91
2023/03/05 19:11:30;;;;;;;8.90;5.20;;;2.90;83.70;;;1.01;64.01;99619.75;10333141;28;98508;-91
2023/03/05 19:16:39;;;;;;;10.00;4.93;;;2.80;84.20;;;1.05;64.52;99618.56;10321861;28;96621;-92
2023/03/05 19:21:49;;;;;;;8.43;4.67;;;2.80;85.40;;;1.10;65.06;99612.97;10311438;28;96540;-89
2023/03/05 19:26:59;;;;;;;11.97;5.07;;;2.90;85.80;;;1.11;65.01;99610.25;10358560;28;96544;-90
2023/03/05 19:32:04;;;;;;;8.33;4.90;;;2.90;86.10;;;1.12;65.21;99616.31;10367991;28;96687;-93
2023/03/05 19:37:10;;;;;;;8.57;4.90;;;2.90;86.20;;;1.06;65.34;99607.97;10335823;28;96642;-91
2023/03/05 19:42:14;;;;;;;9.17;4.50;;;2.80;86.20;;;1.01;64.86;99607.50;10312124;28;96686;-91
2023/03/05 19:47:19;;;;;;;6.47;3.80;;;2.80;86.40;;;0.93;64.72;99606.47;10342018;28;96537;-91
2023/03/05 19:52:21;;;;;;;6.97;3.70;;;2.70;86.50;;;0.86;65.41;99610.53;10349718;28;96635;-90
2023/03/05 19:57:28;;;;;;;7.37;3.90;;;2.70;86.60;;;0.79;65.63;99608.38;10317843;28;97042;-90
2023/03/05 20:02:31;;;;;;;6.77;3.50;;;2.60;86.60;;;0.77;65.25;99609.44;10343643;28;96622;-91
2023/03/05 20:07:34;;;;;;;8.37;3.50;;;2.60;86.70;;;0.74;65.39;99609.69;10320883;28;96828;-92
2023/03/05 20:12:38;;;;;;;5.00;2.90;;;2.60;87.10;;;0.71;65.55;99600.28;10317741;28;96510;-91
2023/03/05 20:17:44;;;;;;;7.03;3.10;;;2.60;87.20;;;0.66;65.47;99609.44;10333390;28;96667;-90
2023/03/05 20:22:47;;;;;;;4.77;3.13;;;2.50;87.30;;;0.60;65.42;99602.94;10352644;28;96809;-90
2023/03/05 20:27:51;;;;;;;5.57;3.10;;;2.50;87.10;;;0.55;66.06;99601.63;10354140;28;98777;-90
2023/03/05 20:32:54;;;;;;;5.20;3.27;;;2.40;87.30;;;0.53;66.05;99604.34;10350401;28;97677;-89
2023/03/05 20:38:20;;;;;;;7.53;3.80;;;2.40;87.50;;;0.51;66.46;99595.78;10353812;28;97623;-90
2023/03/05 20:43:34;;;;;;;7.37;4.67;;;2.40;87.60;;;0.55;66.87;99602.44;10307028;28;97421;-89
2023/03/05 20:48:37;;;;;;;9.87;5.30;;;2.40;87.90;;;0.58;66.92;99603.97;10298150;28;96480;-90
2023/03/05 20:53:40;;;;;;;10.20;4.50;;;2.50;88.20;;;0.61;66.89;99609.81;10319436;28;97521;-90
2023/03/05 20:58:43;;;;;;;12.20;5.67;;;2.50;88.40;;;0.63;67.18;99596.63;10326325;28;96577;-90
2023/03/05 21:03:46;;;;;;;9.60;5.17;;;2.50;88.60;;;0.68;67.25;99603.16;10327771;28;96650;-91
2023/03/05 21:08:49;;;;;;;12.67;5.33;;;2.50;88.80;;;0.69;67.29;99604.00;10317847;28;96553;-90
2023/03/05 21:13:52;;;;;;;8.40;5.23;;;2.60;89.00;;;0.68;67.71;99597.94;10322825;28;96530;-90
2023/03/05 21:18:56;;;;;;;9.97;5.37;;;2.60;89.30;;;0.72;67.70;99601.97;10335495;28;97431;-91
2023/03/05 21:23:59;;;;;;;10.93;5.90;;;2.50;89.90;;;0.75;67.94;99604.34;10298611;28;98191;-91
2023/03/05 21:29:02;;;;;;;9.63;5.47;;;2.60;90.00;;;0.78;67.70;99604.13;10332510;28;96645;-91
2023/03/05 21:34:06;;;;;;;8.70;4.70;;;2.60;90.00;;;0.80;67.91;99602.19;10328072;28;97154;-91